MUHA/HAV METAR and TAF weather

Enter ICAO airport designator
Station Type Date Time Source
MUHA METAR 2021/05/11 01:55 UTC NOAA

MUHA 110155Z 08005KT 9999 FEW025 25/23 Q1018


Station Type Date Time Source
MUHA Decoded METAR 2021/05/11 01:55 UTC NOAA

Aeropuerto Jose Marti, Rancho-Boyeros, Habana, Cuba (MUHA) 22-59N 082-24W 75M
May 10, 2021 - 09:55 PM EDT / 2021.05.11 0155 UTC
Wind: from the E (080 degrees) at 6 MPH (5 KT):0
Visibility: greater than 7 mile(s):0
Sky conditions: mostly clear
Temperature: 77 F (25 C)
Dew Point: 73 F (23 C)
Relative Humidity: 88%
Pressure (altimeter): 30.06 in. Hg (1018 hPa)
ob: MUHA 110155Z 08005KT 9999 FEW025 25/23 Q1018
cycle: 2

Station Type Date Time Source
MUHA TAF 2021/05/10 18:03 UTC NOAA

TAF MUHA 101700Z 1018/1118 16006KT 9000 SCT030
TEMPO 1020/1024 5000 SHRA FEW020CB BKN030
BECMG 1100/1102 08006KT
BECMG 1114/1116 07005KT FEW025

Example: see airport list